DLH2GY EDDL-LOWW
Flight info
| Callsign | DLH2GY |
|---|---|
| Flight time | N/A |
| Altitude | 35000 |
| Route | DODEN1T DODEN Y853 BOMBI DCT ESATI DCT BARSU DCT EKSOS DCT LULAR DCT RUDAP DCT BUDEX |
| Aircraft | A321/M-SDE3FGHIRWY/LB1 |
Departure
| Time | N/A |
|---|---|
| Airport | Düsseldorf Airport (EDDL) |
Arrival
| Time | 2026-04-25 18:58 |
|---|---|
| Airport | Vienna International Airport (LOWW) |
| Time | Latitude | Longitude | Altitude | Speed | Heading |
|---|---|---|---|---|---|
| 2026-04-25 18:26 | 49.34701 | 12.84019 | 35065 ft | 478 kts | 109° |
| 2026-04-25 18:27 | 49.33529 | 12.88797 | 35066 ft | 478 kts | 109° |
| 2026-04-25 18:27 | 49.31135 | 12.98312 | 35068 ft | 478 kts | 110° |
| 2026-04-25 18:28 | 49.28766 | 13.07771 | 35067 ft | 477 kts | 109° |
| 2026-04-25 18:28 | 49.26418 | 13.17319 | 35068 ft | 477 kts | 109° |
| 2026-04-25 18:29 | 49.22866 | 13.31511 | 35065 ft | 477 kts | 110° |
| 2026-04-25 18:30 | 49.17771 | 13.50226 | 35059 ft | 477 kts | 111° |
| 2026-04-25 18:30 | 49.15210 | 13.59606 | 35059 ft | 477 kts | 111° |
| 2026-04-25 18:31 | 49.12688 | 13.68915 | 35057 ft | 477 kts | 111° |
| 2026-04-25 18:31 | 49.10144 | 13.78298 | 35060 ft | 477 kts | 111° |
| 2026-04-25 18:32 | 49.07601 | 13.87594 | 35056 ft | 478 kts | 111° |
| 2026-04-25 18:32 | 49.05018 | 13.96959 | 35046 ft | 480 kts | 111° |
| 2026-04-25 18:33 | 49.02419 | 14.06350 | 35059 ft | 481 kts | 112° |
| 2026-04-25 18:33 | 49.01114 | 14.11058 | 34872 ft | 480 kts | 112° |
| 2026-04-25 18:33 | 48.99817 | 14.15716 | 34627 ft | 477 kts | 112° |
| 2026-04-25 18:34 | 48.98536 | 14.20286 | 34422 ft | 474 kts | 112° |
| 2026-04-25 18:34 | 48.97241 | 14.24881 | 34221 ft | 470 kts | 112° |
| 2026-04-25 18:34 | 48.95949 | 14.29453 | 34015 ft | 468 kts | 112° |
| 2026-04-25 18:34 | 48.95047 | 14.32423 | 33786 ft | 466 kts | 117° |
| 2026-04-25 18:35 | 48.93348 | 14.36615 | 33285 ft | 462 kts | 126° |
| 2026-04-25 18:35 | 48.90721 | 14.41728 | 32185 ft | 466 kts | 128° |
| 2026-04-25 18:35 | 48.89363 | 14.44378 | 31541 ft | 470 kts | 127° |
| 2026-04-25 18:35 | 48.87396 | 14.48289 | 30733 ft | 473 kts | 127° |
| 2026-04-25 18:36 | 48.85411 | 14.52294 | 29968 ft | 474 kts | 127° |
| 2026-04-25 18:36 | 48.83434 | 14.56329 | 29144 ft | 473 kts | 127° |
| 2026-04-25 18:36 | 48.81462 | 14.60290 | 28507 ft | 468 kts | 128° |
| 2026-04-25 18:36 | 48.79493 | 14.64103 | 27926 ft | 462 kts | 129° |
| 2026-04-25 18:37 | 48.77505 | 14.67888 | 27454 ft | 454 kts | 129° |
| 2026-04-25 18:37 | 48.75556 | 14.71617 | 27024 ft | 446 kts | 129° |
| 2026-04-25 18:37 | 48.73653 | 14.75302 | 26405 ft | 443 kts | 129° |
| 2026-04-25 18:37 | 48.71762 | 14.79001 | 25644 ft | 444 kts | 129° |
| 2026-04-25 18:38 | 48.69898 | 14.82670 | 24944 ft | 445 kts | 129° |
| 2026-04-25 18:38 | 48.68020 | 14.86387 | 24362 ft | 441 kts | 129° |
| 2026-04-25 18:38 | 48.66158 | 14.90068 | 23830 ft | 437 kts | 129° |
| 2026-04-25 18:38 | 48.64327 | 14.93637 | 23280 ft | 433 kts | 130° |
| 2026-04-25 18:39 | 48.62483 | 14.97201 | 22710 ft | 428 kts | 130° |
| 2026-04-25 18:39 | 48.60669 | 15.00757 | 22185 ft | 423 kts | 126° |
| 2026-04-25 18:39 | 48.59186 | 15.04551 | 21740 ft | 417 kts | 116° |
| 2026-04-25 18:39 | 48.58139 | 15.08584 | 21356 ft | 408 kts | 106° |
| 2026-04-25 18:40 | 48.57370 | 15.12609 | 21084 ft | 398 kts | 106° |
| 2026-04-25 18:40 | 48.56603 | 15.16588 | 20796 ft | 390 kts | 106° |
| 2026-04-25 18:40 | 48.55845 | 15.20480 | 20516 ft | 382 kts | 106° |
| 2026-04-25 18:40 | 48.55096 | 15.24304 | 20048 ft | 379 kts | 106° |
| 2026-04-25 18:41 | 48.54358 | 15.28104 | 19564 ft | 376 kts | 106° |
| 2026-04-25 18:41 | 48.53632 | 15.31852 | 19069 ft | 375 kts | 106° |
| 2026-04-25 18:41 | 48.52892 | 15.35636 | 18513 ft | 378 kts | 106° |
| 2026-04-25 18:41 | 48.52133 | 15.39491 | 17896 ft | 388 kts | 106° |
| 2026-04-25 18:42 | 48.51351 | 15.43436 | 17274 ft | 395 kts | 106° |
| 2026-04-25 18:42 | 48.50831 | 15.46083 | 16942 ft | 396 kts | 106° |
| 2026-04-25 18:42 | 48.49813 | 15.51376 | 16527 ft | 397 kts | 106° |
| 2026-04-25 18:42 | 48.49024 | 15.55389 | 16309 ft | 401 kts | 107° |
| 2026-04-25 18:43 | 48.48209 | 15.59434 | 16099 ft | 404 kts | 107° |
| 2026-04-25 18:43 | 48.47373 | 15.63490 | 15857 ft | 406 kts | 107° |
| 2026-04-25 18:43 | 48.46549 | 15.67497 | 15599 ft | 405 kts | 107° |
| 2026-04-25 18:43 | 48.45718 | 15.71551 | 15353 ft | 403 kts | 107° |
| 2026-04-25 18:44 | 48.44897 | 15.75582 | 15119 ft | 401 kts | 107° |
| 2026-04-25 18:44 | 48.44082 | 15.79603 | 14885 ft | 399 kts | 107° |
| 2026-04-25 18:44 | 48.43291 | 15.83545 | 14687 ft | 397 kts | 107° |
| 2026-04-25 18:44 | 48.42500 | 15.87532 | 14463 ft | 396 kts | 106° |
| 2026-04-25 18:45 | 48.41712 | 15.91512 | 14238 ft | 395 kts | 107° |
| 2026-04-25 18:45 | 48.40920 | 15.95474 | 14025 ft | 394 kts | 107° |
| 2026-04-25 18:45 | 48.40119 | 15.99362 | 13807 ft | 393 kts | 107° |
| 2026-04-25 18:45 | 48.39295 | 16.03280 | 13548 ft | 392 kts | 108° |
| 2026-04-25 18:46 | 48.38471 | 16.07188 | 13301 ft | 391 kts | 107° |
| 2026-04-25 18:46 | 48.37661 | 16.11100 | 13052 ft | 390 kts | 107° |
| 2026-04-25 18:46 | 48.36879 | 16.14951 | 12832 ft | 388 kts | 107° |
| 2026-04-25 18:46 | 48.36103 | 16.18842 | 12538 ft | 389 kts | 106° |
| 2026-04-25 18:47 | 48.35335 | 16.22745 | 12246 ft | 388 kts | 106° |
| 2026-04-25 18:47 | 48.34575 | 16.26622 | 11848 ft | 380 kts | 106° |
| 2026-04-25 18:47 | 48.33816 | 16.30370 | 11466 ft | 369 kts | 107° |
| 2026-04-25 18:47 | 48.33058 | 16.33964 | 11083 ft | 359 kts | 107° |
| 2026-04-25 18:48 | 48.32305 | 16.37499 | 10714 ft | 350 kts | 107° |
| 2026-04-25 18:48 | 48.31580 | 16.40941 | 10418 ft | 339 kts | 107° |
| 2026-04-25 18:48 | 48.30880 | 16.44272 | 10140 ft | 329 kts | 107° |
| 2026-04-25 18:48 | 48.30079 | 16.47442 | 9922 ft | 318 kts | 117° |
| 2026-04-25 18:49 | 48.28939 | 16.50172 | 9736 ft | 307 kts | 128° |
| 2026-04-25 18:49 | 48.27545 | 16.52532 | 9524 ft | 297 kts | 137° |
| 2026-04-25 18:49 | 48.25965 | 16.54508 | 9051 ft | 297 kts | 145° |
| 2026-04-25 18:49 | 48.24300 | 16.56370 | 8513 ft | 300 kts | 145° |
| 2026-04-25 18:50 | 48.22627 | 16.58256 | 8035 ft | 301 kts | 144° |
| 2026-04-25 18:50 | 48.20967 | 16.60138 | 7619 ft | 300 kts | 144° |
| 2026-04-25 18:50 | 48.19332 | 16.62080 | 7252 ft | 297 kts | 137° |
| 2026-04-25 18:50 | 48.18018 | 16.64426 | 6947 ft | 292 kts | 123° |
| 2026-04-25 18:51 | 48.17074 | 16.67067 | 6602 ft | 289 kts | 115° |
| 2026-04-25 18:51 | 48.16488 | 16.68897 | 6351 ft | 288 kts | 115° |
| 2026-04-25 18:51 | 48.15318 | 16.72459 | 5846 ft | 285 kts | 115° |
| 2026-04-25 18:51 | 48.14441 | 16.75120 | 5476 ft | 283 kts | 115° |
| 2026-04-25 18:52 | 48.13561 | 16.77757 | 5112 ft | 281 kts | 116° |
| 2026-04-25 18:52 | 48.12693 | 16.80329 | 4815 ft | 277 kts | 116° |
| 2026-04-25 18:52 | 48.11639 | 16.82684 | 4605 ft | 269 kts | 134° |
| 2026-04-25 18:52 | 48.10128 | 16.84194 | 4401 ft | 255 kts | 163° |
| 2026-04-25 18:53 | 48.08461 | 16.84387 | 4141 ft | 236 kts | 195° |
| 2026-04-25 18:53 | 48.06958 | 16.83600 | 3912 ft | 224 kts | 205° |
| 2026-04-25 18:53 | 48.05585 | 16.82589 | 3602 ft | 215 kts | 220° |
| 2026-04-25 18:53 | 48.04617 | 16.81003 | 3404 ft | 198 kts | 245° |
| 2026-04-25 18:54 | 48.04393 | 16.77438 | 3118 ft | 163 kts | 291° |
| 2026-04-25 18:54 | 48.04865 | 16.75959 | 3081 ft | 159 kts | 297° |
| 2026-04-25 18:54 | 48.05367 | 16.74455 | 3045 ft | 160 kts | 297° |
| 2026-04-25 18:55 | 48.05845 | 16.73013 | 2882 ft | 147 kts | 297° |
| 2026-04-25 18:55 | 48.06266 | 16.71733 | 2689 ft | 135 kts | 296° |
| 2026-04-25 18:55 | 48.06666 | 16.70501 | 2502 ft | 128 kts | 297° |
| 2026-04-25 18:55 | 48.07057 | 16.69325 | 2312 ft | 125 kts | 297° |
| 2026-04-25 18:56 | 48.07436 | 16.68177 | 2154 ft | 125 kts | 297° |
| 2026-04-25 18:56 | 48.07821 | 16.67000 | 1986 ft | 126 kts | 296° |
| 2026-04-25 18:56 | 48.08205 | 16.65815 | 1828 ft | 127 kts | 296° |
| 2026-04-25 18:56 | 48.08596 | 16.64621 | 1685 ft | 128 kts | 295° |
| 2026-04-25 18:57 | 48.08984 | 16.63426 | 1478 ft | 129 kts | 294° |
| 2026-04-25 18:57 | 48.09393 | 16.62183 | 1329 ft | 136 kts | 295° |
| 2026-04-25 18:57 | 48.09800 | 16.60936 | 1171 ft | 131 kts | 295° |
| 2026-04-25 18:57 | 48.10067 | 16.60118 | 1035 ft | 132 kts | 296° |
| 2026-04-25 18:58 | 48.10609 | 16.58467 | 783 ft | 130 kts | 294° |
| 2026-04-25 18:58 | 48.11314 | 16.56308 | 625 ft | 83 kts | 296° |
| 2026-04-25 18:58 | 48.11498 | 16.55743 | 614 ft | 48 kts | 296° |
| 2026-04-25 18:59 | 48.11788 | 16.55165 | 610 ft | 21 kts | 328° |
| 2026-04-25 18:59 | 48.11842 | 16.55143 | 616 ft | 3 kts | 355° |
| 2026-04-25 19:00 | 48.11882 | 16.55195 | 610 ft | 6 kts | 99° |
| 2026-04-25 19:00 | 48.11861 | 16.55270 | 620 ft | 9 kts | 116° |
| 2026-04-25 19:01 | 48.11789 | 16.55493 | 622 ft | 14 kts | 115° |
| 2026-04-25 19:01 | 48.11745 | 16.55632 | 622 ft | 17 kts | 115° |
| 2026-04-25 19:01 | 48.11692 | 16.55791 | 614 ft | 17 kts | 116° |
| 2026-04-25 19:01 | 48.11651 | 16.55916 | 617 ft | 10 kts | 116° |
| 2026-04-25 19:02 | 48.11585 | 16.56138 | 622 ft | 11 kts | 94° |
| 2026-04-25 19:02 | 48.11635 | 16.56219 | 613 ft | 12 kts | 41° |
| 2026-04-25 19:02 | 48.11713 | 16.56284 | 612 ft | 12 kts | 26° |
| 2026-04-25 19:03 | 48.11726 | 16.56464 | 614 ft | 15 kts | 116° |
| 2026-04-25 19:03 | 48.11665 | 16.56654 | 616 ft | 12 kts | 116° |
| 2026-04-25 19:03 | 48.11633 | 16.56752 | 612 ft | 12 kts | 116° |
| 2026-04-25 19:04 | 48.11596 | 16.56905 | 618 ft | 5 kts | 54° |
| 2026-04-25 19:04 | 48.11634 | 16.56938 | 616 ft | 6 kts | 26° |
| 2026-04-25 19:05 | 48.11655 | 16.56953 | 616 ft | 0 kts | 25° |